createdAt,value
2023-05-16T00:00:14.071Z,44.2414
2023-05-16T00:01:15.936Z,44.2455
2023-05-16T00:02:17.856Z,44.2561
2023-05-16T00:03:19.708Z,44.2670
2023-05-16T00:04:21.532Z,44.2656
2023-05-16T00:05:23.296Z,44.2826
2023-05-16T00:06:25.134Z,44.2965
2023-05-16T00:07:26.984Z,44.3002
2023-05-16T00:08:28.848Z,44.3110
2023-05-16T00:09:30.684Z,44.3209
2023-05-16T00:10:32.533Z,44.3331
2023-05-16T00:11:34.355Z,44.3422
2023-05-16T00:12:36.199Z,44.3425
2023-05-16T00:13:38.053Z,44.3608
2023-05-16T00:14:39.925Z,44.3739
2023-05-16T00:15:41.741Z,44.3733
2023-05-16T00:16:43.599Z,44.3780
2023-05-16T00:17:45.432Z,44.3933
2023-05-16T00:18:47.311Z,44.3993
2023-05-16T00:19:49.146Z,44.4237
2023-05-16T00:20:50.949Z,44.4346
2023-05-16T00:21:52.826Z,44.4412
2023-05-16T00:22:54.649Z,44.4535
2023-05-16T00:23:56.501Z,44.4691
2023-05-16T00:24:58.329Z,44.4716
2023-05-16T00:26:00.191Z,44.4827
2023-05-16T00:27:02.018Z,44.5019
2023-05-16T00:28:03.888Z,44.5106
2023-05-16T00:29:05.722Z,44.5186
2023-05-16T00:30:07.569Z,44.5140
2023-05-16T00:31:09.384Z,44.5211
2023-05-16T00:32:12.119Z,44.5347
2023-05-16T00:33:13.077Z,44.5529
2023-05-16T00:34:14.959Z,44.5658
2023-05-16T00:35:16.765Z,44.5844
2023-05-16T00:36:18.591Z,44.5887
2023-05-16T00:37:20.466Z,44.5950
2023-05-16T00:38:22.296Z,44.6069
2023-05-16T00:39:24.165Z,44.6213
2023-05-16T00:40:26.200Z,44.6211
2023-05-16T00:41:27.875Z,44.6251
2023-05-16T00:42:29.657Z,44.6293
2023-05-16T00:43:31.516Z,44.6305
2023-05-16T00:44:33.348Z,44.6434
2023-05-16T00:45:35.216Z,44.6479
2023-05-16T00:46:37.093Z,44.6479
2023-05-16T00:47:38.980Z,44.6389
2023-05-16T00:48:40.752Z,44.6392
2023-05-16T00:49:42.571Z,44.6363
2023-05-16T00:50:44.415Z,44.6324
2023-05-16T00:51:46.268Z,44.6205
2023-05-16T00:52:48.120Z,44.6078
2023-05-16T00:53:49.977Z,44.5954
2023-05-16T00:54:51.806Z,44.5817
2023-05-16T00:55:53.648Z,44.5735
2023-05-16T00:56:55.492Z,44.5707
2023-05-16T00:57:57.332Z,44.5716
2023-05-16T00:58:59.158Z,44.5793
2023-05-16T01:00:01.005Z,44.5820
2023-05-16T01:01:02.884Z,44.5839
2023-05-16T01:02:04.724Z,44.5860
2023-05-16T01:03:06.774Z,44.5931
2023-05-16T01:04:08.581Z,44.6068
2023-05-16T01:05:10.214Z,44.6108
2023-05-16T01:06:12.065Z,44.6146
2023-05-16T01:07:14.028Z,44.6247
2023-05-16T01:08:15.749Z,44.6357
2023-05-16T01:09:17.595Z,44.6487
2023-05-16T01:10:19.448Z,44.6548
2023-05-16T01:11:21.293Z,44.6612
2023-05-16T01:12:23.113Z,44.6703
2023-05-16T01:13:24.943Z,44.6743
2023-05-16T01:14:26.813Z,44.6773
2023-05-16T01:15:28.905Z,44.6779
2023-05-16T01:16:30.536Z,44.6769
2023-05-16T01:17:32.419Z,44.6827
2023-05-16T01:18:34.174Z,44.6816
2023-05-16T01:19:35.998Z,44.6844
2023-05-16T01:20:37.853Z,44.6852
2023-05-16T01:21:39.720Z,44.6788
2023-05-16T01:22:41.543Z,44.6759
2023-05-16T01:23:43.386Z,44.6673
2023-05-16T01:24:45.234Z,44.6518
2023-05-16T01:25:47.049Z,44.6223
2023-05-16T01:26:48.897Z,44.5945
2023-05-16T01:27:50.743Z,44.5693
2023-05-16T01:28:52.583Z,44.5522
2023-05-16T01:29:54.443Z,44.5469
2023-05-16T01:30:56.252Z,44.5364
2023-05-16T01:31:58.220Z,44.5434
2023-05-16T01:32:59.950Z,44.5425
2023-05-16T01:34:01.834Z,44.5388
2023-05-16T01:35:03.675Z,44.5393
2023-05-16T01:36:05.461Z,44.5249
2023-05-16T01:37:07.292Z,44.5146
2023-05-16T01:38:09.132Z,44.4967
2023-05-16T01:39:10.965Z,44.4645
2023-05-16T01:40:12.825Z,44.4537
2023-05-16T01:41:14.635Z,44.4359
2023-05-16T01:42:16.522Z,44.4079
2023-05-16T01:43:18.380Z,44.3854
2023-05-16T01:44:20.182Z,44.3662
2023-05-16T01:45:21.997Z,44.3429
2023-05-16T01:46:23.915Z,44.3325
2023-05-16T01:47:25.728Z,44.3050
2023-05-16T01:48:27.532Z,44.2930
2023-05-16T01:49:29.384Z,44.2835
2023-05-16T01:50:31.247Z,44.2817
2023-05-16T01:51:33.058Z,44.2893
2023-05-16T01:52:34.925Z,44.2906
2023-05-16T01:53:36.749Z,44.2890
2023-05-16T01:54:38.597Z,44.2981
2023-05-16T01:55:40.447Z,44.3175
2023-05-16T01:56:42.278Z,44.3515
2023-05-16T01:57:44.095Z,44.3734
2023-05-16T01:58:45.960Z,44.3894
2023-05-16T01:59:47.813Z,44.3934
2023-05-16T02:00:49.689Z,44.4098
2023-05-16T02:01:51.463Z,44.4229
2023-05-16T02:02:53.332Z,44.4372
2023-05-16T02:03:55.196Z,44.4503
2023-05-16T02:04:57.012Z,44.4588
2023-05-16T02:06:06.608Z,44.4839
2023-05-16T02:07:00.682Z,44.5321
2023-05-16T02:08:02.524Z,44.5596
2023-05-16T02:09:04.373Z,44.5883
2023-05-16T02:10:06.244Z,44.6193
2023-05-16T02:11:15.578Z,44.6366
2023-05-16T02:12:09.887Z,44.6763
2023-05-16T02:13:11.728Z,44.7101
2023-05-16T02:14:13.559Z,44.7337
2023-05-16T02:15:15.408Z,44.7520
2023-05-16T02:16:17.292Z,44.7617
2023-05-16T02:17:19.152Z,44.7875
2023-05-16T02:18:20.930Z,44.8026
2023-05-16T02:19:22.825Z,44.8205
2023-05-16T02:20:24.716Z,44.8435
2023-05-16T02:21:26.438Z,44.8586
2023-05-16T02:22:28.282Z,44.8773
2023-05-16T02:23:30.128Z,44.8974
2023-05-16T02:24:31.971Z,44.9127
2023-05-16T02:25:33.805Z,44.9325
2023-05-16T02:26:35.636Z,44.9563
2023-05-16T02:27:37.503Z,44.9673
2023-05-16T02:28:39.337Z,44.9813
2023-05-16T02:29:41.276Z,45.0025
2023-05-16T02:30:43.045Z,45.0247
2023-05-16T02:31:44.828Z,45.0322
2023-05-16T02:32:46.711Z,45.0522
2023-05-16T02:33:48.516Z,45.0680
2023-05-16T02:34:50.367Z,45.0761
2023-05-16T02:35:52.198Z,45.0778
2023-05-16T02:36:54.049Z,45.0880
2023-05-16T02:37:55.907Z,45.1014
2023-05-16T02:38:57.736Z,45.1067
2023-05-16T02:39:59.556Z,45.1086
2023-05-16T02:41:01.392Z,45.1152
2023-05-16T02:42:03.263Z,45.1167
2023-05-16T02:43:05.088Z,45.1241
2023-05-16T02:44:06.922Z,45.1199
2023-05-16T02:45:08.776Z,45.1249
2023-05-16T02:46:10.655Z,45.1324
2023-05-16T02:47:12.478Z,45.1321
2023-05-16T02:48:14.323Z,45.1381
2023-05-16T02:49:16.129Z,45.1370
2023-05-16T02:50:17.994Z,45.1341
2023-05-16T02:51:19.828Z,45.1495
2023-05-16T02:52:21.671Z,45.1573
2023-05-16T02:53:23.508Z,45.1532
2023-05-16T02:54:25.359Z,45.1657
2023-05-16T02:55:27.196Z,45.1711
2023-05-16T02:56:29.023Z,45.1713
2023-05-16T02:57:30.854Z,45.1900
2023-05-16T02:58:32.714Z,45.1996
2023-05-16T02:59:34.572Z,45.1982
2023-05-16T03:00:36.395Z,45.1972
2023-05-16T03:01:38.256Z,45.2006
2023-05-16T03:02:40.162Z,45.2114
2023-05-16T03:03:41.999Z,45.2161
2023-05-16T03:04:43.760Z,45.2260
2023-05-16T03:05:45.606Z,45.2303
2023-05-16T03:06:47.447Z,45.2376
2023-05-16T03:07:49.283Z,45.2453
2023-05-16T03:08:51.175Z,45.2634
2023-05-16T03:09:52.967Z,45.2833
2023-05-16T03:10:54.792Z,45.3030
2023-05-16T03:11:56.646Z,45.3117
2023-05-16T03:12:58.493Z,45.3113
2023-05-16T03:14:01.777Z,45.3165
2023-05-16T03:15:02.214Z,45.3160
2023-05-16T03:16:04.021Z,45.3154
2023-05-16T03:17:05.863Z,45.3197
2023-05-16T03:18:07.778Z,45.3213
2023-05-16T03:19:09.551Z,45.3239
2023-05-16T03:20:11.365Z,45.3356
2023-05-16T03:21:13.209Z,45.3378
2023-05-16T03:22:15.074Z,45.3394
2023-05-16T03:23:16.885Z,45.3389
2023-05-16T03:24:18.780Z,45.3353
2023-05-16T03:25:20.568Z,45.3470
2023-05-16T03:26:22.427Z,45.3447
2023-05-16T03:27:24.275Z,45.3386
2023-05-16T03:28:26.200Z,45.3383
2023-05-16T03:29:28.078Z,45.3421
2023-05-16T03:30:29.870Z,45.3522
2023-05-16T03:31:31.748Z,45.3565
2023-05-16T03:32:33.606Z,45.3617
2023-05-16T03:33:35.411Z,45.3686
2023-05-16T03:34:37.233Z,45.3837
2023-05-16T03:35:39.107Z,45.3714
2023-05-16T03:36:40.921Z,45.3775
2023-05-16T03:37:42.759Z,45.3917
2023-05-16T03:38:44.605Z,45.4052
2023-05-16T03:39:46.462Z,45.4146
2023-05-16T03:40:48.285Z,45.4168
2023-05-16T03:41:50.141Z,45.4199
2023-05-16T03:42:52.005Z,45.4229
2023-05-16T03:43:53.824Z,45.4248
2023-05-16T03:44:55.653Z,45.4291
2023-05-16T03:45:57.553Z,45.4242
2023-05-16T03:46:59.346Z,45.4214
2023-05-16T03:48:01.238Z,45.4195
2023-05-16T03:49:03.037Z,45.4129
2023-05-16T03:50:04.875Z,45.4102
2023-05-16T03:51:06.711Z,45.4074
2023-05-16T03:52:08.580Z,45.4045
2023-05-16T03:53:10.417Z,45.4131
2023-05-16T03:54:12.250Z,45.4168
2023-05-16T03:55:14.088Z,45.4130
2023-05-16T03:56:15.915Z,45.4062
2023-05-16T03:57:17.797Z,45.4027
2023-05-16T03:58:19.598Z,45.3860
2023-05-16T03:59:21.541Z,45.3801
2023-05-16T04:00:23.281Z,45.3682
2023-05-16T04:01:25.138Z,45.3673
2023-05-16T04:02:27.054Z,45.3636
2023-05-16T04:03:29.018Z,45.3642
2023-05-16T04:04:30.638Z,45.3517
2023-05-16T04:05:32.547Z,45.3426
2023-05-16T04:06:34.345Z,45.3241
2023-05-16T04:07:36.202Z,45.3155
2023-05-16T04:08:38.135Z,45.3149
2023-05-16T04:09:39.882Z,45.3050
2023-05-16T04:10:41.701Z,45.3054
2023-05-16T04:11:43.554Z,45.2993
2023-05-16T04:12:45.381Z,45.3071
2023-05-16T04:13:47.289Z,45.2990
2023-05-16T04:14:49.064Z,45.2994
2023-05-16T04:15:50.915Z,45.2898
2023-05-16T04:16:52.784Z,45.3003
2023-05-16T04:17:54.692Z,45.2983
2023-05-16T04:18:56.462Z,45.2754
2023-05-16T04:19:58.268Z,45.2583
2023-05-16T04:21:00.140Z,45.2426
2023-05-16T04:22:01.973Z,45.2283
2023-05-16T04:23:03.796Z,45.2186
2023-05-16T04:24:05.621Z,45.2009
2023-05-16T04:25:07.502Z,45.1998
2023-05-16T04:26:09.315Z,45.2004
2023-05-16T04:27:11.164Z,45.1963
2023-05-16T04:28:13.007Z,45.1839
2023-05-16T04:29:14.840Z,45.1837
2023-05-16T04:30:16.681Z,45.1680
2023-05-16T04:31:18.579Z,45.1665
2023-05-16T04:32:20.365Z,45.1567
2023-05-16T04:33:22.201Z,45.1390
2023-05-16T04:34:24.052Z,45.1273
2023-05-16T04:35:26.165Z,45.1269
2023-05-16T04:36:27.746Z,45.1281
2023-05-16T04:37:29.595Z,45.1241
2023-05-16T04:38:31.408Z,45.1113
2023-05-16T04:39:33.261Z,45.0867
2023-05-16T04:40:35.108Z,45.0847
2023-05-16T04:41:36.944Z,45.0799
2023-05-16T04:42:38.786Z,45.0876
2023-05-16T04:43:40.626Z,45.0781
2023-05-16T04:44:42.477Z,45.0820
2023-05-16T04:45:44.301Z,45.0757
2023-05-16T04:46:46.272Z,45.0741
2023-05-16T04:47:48.049Z,45.0663
2023-05-16T04:48:49.849Z,45.0628
2023-05-16T04:49:51.666Z,45.0665
2023-05-16T04:50:53.502Z,45.0606
2023-05-16T04:51:55.350Z,45.0644
2023-05-16T04:52:57.181Z,45.0643
2023-05-16T04:53:59.025Z,45.0651
2023-05-16T04:55:00.876Z,45.0520
2023-05-16T04:56:02.721Z,45.0541
2023-05-16T04:57:04.546Z,45.0495
2023-05-16T04:58:06.416Z,45.0408
2023-05-16T04:59:08.246Z,45.0393
2023-05-16T05:00:10.085Z,45.0290
2023-05-16T05:01:11.974Z,45.0200
2023-05-16T05:02:13.821Z,45.0117
2023-05-16T05:03:15.699Z,45.0046
2023-05-16T05:04:17.449Z,45.0024
2023-05-16T05:05:19.333Z,44.9938
2023-05-16T05:06:21.130Z,44.9780
2023-05-16T05:07:22.980Z,44.9620
2023-05-16T05:08:24.797Z,44.9499
2023-05-16T05:09:26.672Z,44.9393
2023-05-16T05:10:28.494Z,44.9437
2023-05-16T05:11:30.326Z,44.9311
2023-05-16T05:12:32.173Z,44.9287
2023-05-16T05:13:33.999Z,44.9240
2023-05-16T05:14:35.848Z,44.9146
2023-05-16T05:15:37.689Z,44.9085
2023-05-16T05:16:39.542Z,44.8936
2023-05-16T05:17:41.445Z,44.8860
2023-05-16T05:18:43.271Z,44.8817
2023-05-16T05:19:45.169Z,44.8667
2023-05-16T05:20:46.860Z,44.8605
2023-05-16T05:21:48.725Z,44.8471
2023-05-16T05:22:50.544Z,44.8234
2023-05-16T05:23:52.397Z,44.8079
2023-05-16T05:24:54.224Z,44.7903
2023-05-16T05:25:56.065Z,44.7790
2023-05-16T05:26:57.903Z,44.7546
2023-05-16T05:27:59.705Z,44.7465
2023-05-16T05:29:05.830Z,44.7280
2023-05-16T05:30:03.390Z,44.7232
2023-05-16T05:31:05.212Z,44.6994
2023-05-16T05:32:07.107Z,44.6754
2023-05-16T05:33:08.937Z,44.6632
2023-05-16T05:34:10.739Z,44.6599
2023-05-16T05:35:12.567Z,44.6410
2023-05-16T05:36:14.412Z,44.6291
2023-05-16T05:37:16.263Z,44.6201
2023-05-16T05:38:18.077Z,44.6089
2023-05-16T05:39:19.929Z,44.5952
2023-05-16T05:40:21.767Z,44.6090
2023-05-16T05:41:23.624Z,44.5863
2023-05-16T05:42:25.453Z,44.5658
2023-05-16T05:43:27.271Z,44.5449
2023-05-16T05:44:29.138Z,44.5431
2023-05-16T05:45:31.061Z,44.5198
2023-05-16T05:46:32.840Z,44.5042
2023-05-16T05:47:34.718Z,44.4939
2023-05-16T05:48:36.469Z,44.5023
2023-05-16T05:49:38.313Z,44.4862
2023-05-16T05:50:40.170Z,44.4748
2023-05-16T05:51:42.009Z,44.4828
2023-05-16T05:52:43.819Z,44.4862
2023-05-16T05:53:45.680Z,44.4854
2023-05-16T05:54:47.503Z,44.4842
2023-05-16T05:55:49.345Z,44.4849
2023-05-16T05:56:51.211Z,44.4767
2023-05-16T05:57:53.041Z,44.4755
2023-05-16T05:58:54.865Z,44.4648
2023-05-16T05:59:56.739Z,44.4614
2023-05-16T06:00:58.554Z,44.4552
2023-05-16T06:02:00.398Z,44.4574
2023-05-16T06:03:02.244Z,44.4479
2023-05-16T06:04:04.075Z,44.4345
2023-05-16T06:05:05.938Z,44.4315
2023-05-16T06:06:07.768Z,44.4206
2023-05-16T06:07:09.602Z,44.4133
2023-05-16T06:08:11.426Z,44.4119
2023-05-16T06:09:13.264Z,44.4054
2023-05-16T06:10:15.097Z,44.3864
2023-05-16T06:11:16.940Z,44.3804
2023-05-16T06:12:18.805Z,44.3766
2023-05-16T06:13:20.626Z,44.3602
2023-05-16T06:14:22.462Z,44.3521
2023-05-16T06:15:24.433Z,44.3370
2023-05-16T06:16:26.170Z,44.3199
2023-05-16T06:17:28.038Z,44.3047
2023-05-16T06:18:29.909Z,44.2862
2023-05-16T06:19:31.691Z,44.2787
2023-05-16T06:20:33.721Z,44.2762
2023-05-16T06:21:35.382Z,44.2643
2023-05-16T06:22:37.199Z,44.2517
2023-05-16T06:23:39.042Z,44.2436
2023-05-16T06:24:40.899Z,44.2449
2023-05-16T06:25:42.703Z,44.2433
2023-05-16T06:26:44.588Z,44.2464
2023-05-16T06:27:46.401Z,44.2506
2023-05-16T06:28:48.229Z,44.2397
2023-05-16T06:29:50.082Z,44.2377
2023-05-16T06:30:51.922Z,44.2264
2023-05-16T06:31:53.897Z,44.2204
2023-05-16T06:32:55.646Z,44.2174
2023-05-16T06:33:57.448Z,44.2149
2023-05-16T06:34:59.279Z,44.2172
2023-05-16T06:36:01.109Z,44.2120
2023-05-16T06:37:02.949Z,44.1988
2023-05-16T06:38:04.812Z,44.1839
2023-05-16T06:39:06.627Z,44.1766
2023-05-16T06:40:08.514Z,44.1725
2023-05-16T06:41:10.335Z,44.1583
2023-05-16T06:42:12.177Z,44.1684
2023-05-16T06:43:13.999Z,44.1556
2023-05-16T06:44:15.857Z,44.1521
2023-05-16T06:45:17.701Z,44.1572
2023-05-16T06:46:19.590Z,44.1552
2023-05-16T06:47:21.372Z,44.1502
2023-05-16T06:48:23.293Z,44.1472
2023-05-16T06:49:25.054Z,44.1385
2023-05-16T06:50:26.910Z,44.1332
2023-05-16T06:51:28.768Z,44.1219
2023-05-16T06:52:30.588Z,44.1182
2023-05-16T06:53:32.422Z,44.1288
2023-05-16T06:54:34.283Z,44.1160
2023-05-16T06:55:36.138Z,44.1038
2023-05-16T06:56:37.955Z,44.1111
2023-05-16T06:57:39.849Z,44.0955
2023-05-16T06:58:41.667Z,44.0864
2023-05-16T06:59:43.481Z,44.0825
2023-05-16T07:00:45.320Z,44.0872
2023-05-16T07:01:47.222Z,44.0837
2023-05-16T07:02:49.119Z,44.0896
2023-05-16T07:03:50.973Z,44.0874
2023-05-16T07:04:52.690Z,44.0788
2023-05-16T07:05:54.573Z,44.0770
2023-05-16T07:06:56.383Z,44.0820
2023-05-16T07:07:58.221Z,44.0841
2023-05-16T07:09:00.060Z,44.0950
2023-05-16T07:10:01.898Z,44.0853
2023-05-16T07:11:03.734Z,44.0727
2023-05-16T07:12:05.585Z,44.0610
2023-05-16T07:13:07.443Z,44.0517
2023-05-16T07:14:09.284Z,44.0472
2023-05-16T07:15:11.098Z,44.0517
2023-05-16T07:16:13.003Z,44.0537
2023-05-16T07:17:14.792Z,44.0599
2023-05-16T07:18:16.663Z,44.0620
2023-05-16T07:19:18.549Z,44.0608
2023-05-16T07:20:20.314Z,44.0541
2023-05-16T07:21:22.175Z,44.0506
2023-05-16T07:22:23.975Z,44.0342
2023-05-16T07:23:25.816Z,44.0438
2023-05-16T07:24:27.665Z,44.0567
2023-05-16T07:25:29.708Z,44.0757
2023-05-16T07:26:31.342Z,44.0794
2023-05-16T07:27:33.200Z,44.0794
2023-05-16T07:28:35.036Z,44.0802
2023-05-16T07:29:36.866Z,44.0902
2023-05-16T07:30:38.697Z,44.0826
2023-05-16T07:31:40.622Z,44.0728
2023-05-16T07:32:42.474Z,44.0735
2023-05-16T07:33:44.282Z,44.0540
2023-05-16T07:34:46.121Z,44.0324
2023-05-16T07:35:47.964Z,44.0324
2023-05-16T07:36:49.821Z,44.0360
2023-05-16T07:37:52.244Z,44.0336
2023-05-16T07:38:53.465Z,44.0244
2023-05-16T07:39:56.226Z,44.0090
2023-05-16T07:40:57.144Z,43.9910
2023-05-16T07:41:58.982Z,43.9802
2023-05-16T07:43:00.817Z,43.9807
2023-05-16T07:44:02.675Z,43.9854
2023-05-16T07:45:04.523Z,43.9803
2023-05-16T07:46:06.387Z,43.9708
2023-05-16T07:47:08.173Z,43.9620
2023-05-16T07:48:10.143Z,43.9627
2023-05-16T07:49:11.863Z,43.9772
2023-05-16T07:50:13.690Z,43.9919
2023-05-16T07:51:15.546Z,43.9919
2023-05-16T07:52:17.392Z,43.9979
2023-05-16T07:53:19.203Z,44.0157
2023-05-16T07:54:21.054Z,44.0216
2023-05-16T07:55:22.885Z,44.0471
2023-05-16T07:56:24.711Z,44.0671
2023-05-16T07:57:26.566Z,44.0987
2023-05-16T07:58:28.416Z,44.1198
2023-05-16T07:59:30.278Z,44.1322
2023-05-16T08:00:32.074Z,44.1367
2023-05-16T08:01:34.108Z,44.1506
2023-05-16T08:02:35.800Z,44.1640
2023-05-16T08:03:38.031Z,44.1975
2023-05-16T08:04:39.455Z,44.2061
2023-05-16T08:05:41.319Z,44.2048
2023-05-16T08:06:43.145Z,44.2342
2023-05-16T08:07:44.983Z,44.2527
2023-05-16T08:08:46.772Z,44.2457
2023-05-16T08:09:48.631Z,44.2347
2023-05-16T08:10:50.477Z,44.2393
2023-05-16T08:11:52.320Z,44.2434
2023-05-16T08:12:54.150Z,44.2516
2023-05-16T08:13:55.968Z,44.2502
2023-05-16T08:14:57.828Z,44.2374
2023-05-16T08:15:59.710Z,44.2212
2023-05-16T08:17:01.504Z,44.2180
2023-05-16T08:18:03.382Z,44.2105
2023-05-16T08:19:05.269Z,44.1901
2023-05-16T08:20:07.036Z,44.1671
2023-05-16T08:21:08.865Z,44.1603
2023-05-16T08:22:10.744Z,44.1465
2023-05-16T08:23:14.626Z,44.1139
2023-05-16T08:24:15.500Z,44.0929
2023-05-16T08:25:16.259Z,44.0851
2023-05-16T08:26:18.101Z,44.0867
2023-05-16T08:27:19.948Z,44.0788
2023-05-16T08:28:21.812Z,44.0611
2023-05-16T08:29:23.634Z,44.0439
2023-05-16T08:30:25.460Z,44.0414
2023-05-16T08:31:27.486Z,44.0220
2023-05-16T08:32:29.170Z,43.9983
2023-05-16T08:33:31.001Z,43.9544
2023-05-16T08:34:32.841Z,43.9327
2023-05-16T08:35:34.670Z,43.9007
2023-05-16T08:36:36.530Z,43.8796
2023-05-16T08:37:38.403Z,43.8701
2023-05-16T08:38:40.197Z,43.8718
2023-05-16T08:39:42.070Z,43.8620
2023-05-16T08:40:43.906Z,43.8524
2023-05-16T08:41:45.730Z,43.8509
2023-05-16T08:42:47.596Z,43.8461
2023-05-16T08:43:49.425Z,43.8450
2023-05-16T08:44:51.299Z,43.8511
2023-05-16T08:45:53.104Z,43.8434
2023-05-16T08:46:55.077Z,43.8394
2023-05-16T08:47:57.125Z,43.8537
2023-05-16T08:48:58.639Z,43.8533
2023-05-16T08:50:00.476Z,43.8536
2023-05-16T08:51:02.350Z,43.8335
2023-05-16T08:52:04.165Z,43.8169
2023-05-16T08:53:05.992Z,43.8016
2023-05-16T08:54:07.838Z,43.7874
2023-05-16T08:55:11.633Z,43.7942
2023-05-16T08:56:12.548Z,43.7841
2023-05-16T08:57:13.365Z,43.7914
2023-05-16T08:58:15.204Z,43.7991
2023-05-16T08:59:17.056Z,43.7879
2023-05-16T09:00:18.890Z,43.7758
2023-05-16T09:01:20.790Z,43.7869
2023-05-16T09:02:22.726Z,43.7858
2023-05-16T09:03:24.455Z,43.7983
2023-05-16T09:04:26.299Z,43.8170
2023-05-16T09:05:29.086Z,43.8400
2023-05-16T09:06:29.936Z,43.8630
2023-05-16T09:07:31.795Z,43.8922
2023-05-16T09:08:33.606Z,43.9015
2023-05-16T09:09:35.460Z,43.8989
2023-05-16T09:10:37.300Z,43.8907
2023-05-16T09:11:39.134Z,43.8940
2023-05-16T09:12:41.004Z,43.9054
2023-05-16T09:13:42.831Z,43.9343
2023-05-16T09:14:44.661Z,43.9714
2023-05-16T09:15:46.501Z,44.0043
2023-05-16T09:16:48.384Z,44.0172
2023-05-16T09:17:50.278Z,44.0188
2023-05-16T09:18:52.080Z,44.0169
2023-05-16T09:19:53.857Z,44.0252
2023-05-16T09:20:55.694Z,44.0707
2023-05-16T09:21:57.575Z,44.0961
2023-05-16T09:22:59.388Z,44.1026
2023-05-16T09:24:01.229Z,44.1291
2023-05-16T09:25:03.085Z,44.1490
2023-05-16T09:26:04.916Z,44.1585
2023-05-16T09:27:06.757Z,44.1718
2023-05-16T09:28:08.577Z,44.1894
2023-05-16T09:29:10.450Z,44.2149
2023-05-16T09:30:12.289Z,44.2345
2023-05-16T09:31:14.142Z,44.2481
2023-05-16T09:32:15.958Z,44.2492
2023-05-16T09:33:17.858Z,44.2614
2023-05-16T09:34:19.631Z,44.2921
2023-05-16T09:35:35.250Z,44.3200
2023-05-16T09:36:26.483Z,44.3592
2023-05-16T09:37:27.034Z,44.3654
2023-05-16T09:38:28.599Z,44.3631
2023-05-16T09:39:30.174Z,44.3534
2023-05-16T09:40:31.752Z,44.3502
2023-05-16T09:41:33.289Z,44.3429
2023-05-16T09:42:34.878Z,44.3447
2023-05-16T09:43:37.875Z,44.3280
2023-05-16T09:44:38.002Z,44.3371
2023-05-16T09:45:39.858Z,44.3482
2023-05-16T09:46:41.765Z,44.3679
2023-05-16T09:47:43.599Z,44.3912
2023-05-16T09:48:45.390Z,44.4214
2023-05-16T09:49:47.201Z,44.4570
2023-05-16T09:50:49.023Z,44.4790
2023-05-16T09:51:50.865Z,44.5589
2023-05-16T09:52:52.723Z,44.6690
2023-05-16T09:53:54.563Z,44.7587
2023-05-16T09:54:56.400Z,44.8105
2023-05-16T09:55:58.228Z,44.8184
2023-05-16T09:57:02.731Z,44.8882
2023-05-16T09:58:01.925Z,44.9827
2023-05-16T09:59:03.742Z,45.0339
2023-05-16T10:00:05.601Z,45.1160
2023-05-16T10:01:07.428Z,45.2591
2023-05-16T10:02:09.314Z,45.3297
2023-05-16T10:03:11.202Z,45.3476
2023-05-16T10:04:13.321Z,45.3716
2023-05-16T10:05:14.768Z,45.3917
2023-05-16T10:06:16.680Z,45.4567
2023-05-16T10:07:18.466Z,45.5736
2023-05-16T10:08:20.290Z,45.6466
2023-05-16T10:09:22.160Z,45.6938
2023-05-16T10:10:24.022Z,45.7352
2023-05-16T10:11:25.822Z,45.7930
2023-05-16T10:12:27.663Z,45.8470
2023-05-16T10:13:29.514Z,45.9091
2023-05-16T10:14:31.365Z,45.9286
2023-05-16T10:15:33.183Z,45.9520
2023-05-16T10:16:35.084Z,45.9947
2023-05-16T10:17:36.886Z,46.0239
2023-05-16T10:18:38.774Z,46.0770
2023-05-16T10:19:40.595Z,46.0995
2023-05-16T10:20:42.407Z,46.1171
2023-05-16T10:21:44.229Z,46.1346
2023-05-16T10:22:46.074Z,46.1608
2023-05-16T10:23:47.904Z,46.1669
2023-05-16T10:24:49.780Z,46.1648
2023-05-16T10:25:51.594Z,46.1656
2023-05-16T10:26:53.412Z,46.1305
2023-05-16T10:27:55.258Z,46.0636
2023-05-16T10:28:57.107Z,46.0377
2023-05-16T10:29:58.966Z,46.0221
2023-05-16T10:31:00.779Z,45.9730
2023-05-16T10:32:02.739Z,45.9567
2023-05-16T10:33:04.532Z,45.9574
2023-05-16T10:34:06.300Z,45.8896
2023-05-16T10:35:08.345Z,45.8112
2023-05-16T10:36:10.018Z,45.7835
2023-05-16T10:37:11.815Z,45.7180
2023-05-16T10:38:13.686Z,45.6776
2023-05-16T10:39:15.524Z,45.6509
2023-05-16T10:40:17.404Z,45.6422
2023-05-16T10:41:19.176Z,45.6144
2023-05-16T10:42:21.018Z,45.5648
2023-05-16T10:43:22.860Z,45.5117
2023-05-16T10:44:24.713Z,45.4997
2023-05-16T10:45:26.825Z,45.4987
2023-05-16T10:46:28.443Z,45.5208
2023-05-16T10:47:30.221Z,45.5167
2023-05-16T10:48:32.034Z,45.4978
2023-05-16T10:49:33.897Z,45.4875
2023-05-16T10:50:35.828Z,45.5202
2023-05-16T10:51:37.563Z,45.5584
2023-05-16T10:52:39.416Z,45.5920
2023-05-16T10:53:41.238Z,45.6245
2023-05-16T10:54:43.087Z,45.6354
2023-05-16T10:55:44.903Z,45.6424
2023-05-16T10:56:46.727Z,45.6627
2023-05-16T10:57:48.580Z,45.6720
2023-05-16T10:58:50.430Z,45.6672
2023-05-16T10:59:52.263Z,45.6818
2023-05-16T11:00:54.148Z,45.7104
2023-05-16T11:01:56.168Z,45.7241
2023-05-16T11:02:57.841Z,45.7218
2023-05-16T11:03:59.793Z,45.7482
2023-05-16T11:05:01.456Z,45.7666
2023-05-16T11:06:03.374Z,45.7697
2023-05-16T11:07:05.112Z,45.7812
2023-05-16T11:08:07.004Z,45.8038
2023-05-16T11:09:08.796Z,45.8344
2023-05-16T11:10:10.638Z,45.8831
2023-05-16T11:11:12.488Z,45.8991
2023-05-16T11:12:14.340Z,45.9531
2023-05-16T11:13:16.171Z,45.9894
2023-05-16T11:14:18.009Z,46.0275
2023-05-16T11:15:19.870Z,46.0515
2023-05-16T11:16:21.733Z,46.0681
2023-05-16T11:17:23.664Z,46.1203
2023-05-16T11:18:25.365Z,46.1685
2023-05-16T11:19:27.182Z,46.2066
2023-05-16T11:20:29.055Z,46.2216
2023-05-16T11:21:30.944Z,46.2149
2023-05-16T11:22:32.718Z,46.2228
2023-05-16T11:23:36.220Z,46.2482
2023-05-16T11:24:37.790Z,46.2542
2023-05-16T11:25:39.371Z,46.2771
2023-05-16T11:26:40.896Z,46.3242
2023-05-16T11:27:42.470Z,46.3820
2023-05-16T11:28:44.036Z,46.4246
2023-05-16T11:29:45.595Z,46.4632
2023-05-16T11:30:47.406Z,46.4637
2023-05-16T11:31:49.270Z,46.4581
2023-05-16T11:32:51.120Z,46.4411
2023-05-16T11:33:52.905Z,46.4373
2023-05-16T11:34:54.756Z,46.4269
2023-05-16T11:36:04.140Z,46.4015
2023-05-16T11:36:59.494Z,46.3904
2023-05-16T11:38:00.342Z,46.3829
2023-05-16T11:39:02.197Z,46.3735
2023-05-16T11:40:04.079Z,46.3432
2023-05-16T11:41:05.877Z,46.3111
2023-05-16T11:42:07.692Z,46.2897
2023-05-16T11:43:09.534Z,46.2937
2023-05-16T11:44:11.399Z,46.3189
2023-05-16T11:45:13.221Z,46.3211
2023-05-16T11:46:15.104Z,46.3238
2023-05-16T11:47:16.911Z,46.2832
2023-05-16T11:48:24.995Z,46.2456
2023-05-16T11:49:21.587Z,46.2189
2023-05-16T11:50:22.448Z,46.2093
2023-05-16T11:51:24.262Z,46.2093
2023-05-16T11:52:26.139Z,46.1888
2023-05-16T11:53:27.922Z,46.1721
2023-05-16T11:54:29.769Z,46.1786
2023-05-16T11:55:41.713Z,46.1660
2023-05-16T11:56:36.611Z,46.1594
2023-05-16T11:57:37.177Z,46.1889
2023-05-16T11:58:38.751Z,46.2141
2023-05-16T11:59:40.311Z,46.2375
2023-05-16T12:00:41.873Z,46.2620
2023-05-16T12:01:43.471Z,46.2585
2023-05-16T12:02:45.039Z,46.2327
2023-05-16T12:03:46.690Z,46.2419
2023-05-16T12:04:48.460Z,46.2797
2023-05-16T12:05:49.985Z,46.3079
2023-05-16T12:06:51.798Z,46.2367
2023-05-16T12:07:53.664Z,46.2212
2023-05-16T12:08:55.474Z,46.1858
2023-05-16T12:09:57.321Z,46.1549
2023-05-16T12:10:59.186Z,46.0923
2023-05-16T12:12:01.022Z,46.0131
2023-05-16T12:13:02.812Z,45.9672
2023-05-16T12:14:04.657Z,45.9378
2023-05-16T12:15:06.510Z,45.8756
2023-05-16T12:16:08.348Z,45.8285
2023-05-16T12:17:10.224Z,45.7822
2023-05-16T12:18:12.097Z,45.7642
2023-05-16T12:19:13.908Z,45.7463
2023-05-16T12:20:15.693Z,45.7009
2023-05-16T12:21:17.559Z,45.6790
2023-05-16T12:22:19.383Z,45.6553
2023-05-16T12:23:21.213Z,45.6363
2023-05-16T12:24:23.051Z,45.5295
2023-05-16T12:25:25.194Z,45.4538
2023-05-16T12:26:26.782Z,45.4573
2023-05-16T12:27:28.582Z,45.5021